Terminal Aerodrome Forecast
Issued by NWS Charleston, WV

Current Version | Previous Version | Text Only | Print | Product List | Glossary Off
Versions: 1 2 3 4 5 6 7 8 9 10 11 12 13 14 15 16 17 18 19 20 21 22 23 24 25 26 27

000
FTUS41 KRLX 210200 AAA
TAFBKW
TAF AMD
KBKW 210246Z 2103/2124 00000KT P6SM SKC
     FM211400 25009KT P6SM BKN035
     FM211700 27011G17KT 6SM SHRA BR VCTS OVC025CB
     FM212000 26011G17KT 5SM TSRA BR BKN025CB
     FM212200 26010G15KT 6SM BR VCTS BKN040CB=

USA.gov is the U.S. government's official web portal to all federal, state and local government web resources and services.